DAAGDABS

Guest
Details From DAAG - Alger Houari Boumediene
To DABS - Cheikh Larbi Tebessi
Flight Number -
Tags Generated
Created
Modified
Stats Distance 251 nm / 465 km
Max Altitude 0 ft / 0 m
Waypoints 2
Social Downloads 2
Likes 0
Share VATSIM

Download

Looking for another format? Having issues loading an existing format? Contact us
Advertisement - Login to hide

Notes

Generated

Route

DAAG DABS

ID Type Via Altitude Latitude Longitude Leg Dist Tot Dist Heading (true) Name
O DAAG APT - 0 ft / 0 m 36.69213˚ 3.17083˚ - 0 nm - -
O DABS APT - 0 ft / 0 m 35.43568˚ 8.10811˚ 251 nm 251 nm 106° / 109° -

Altitude Profile

Advertisement - Login to hide

Weather


0- 5 10 15 20 25 30 35+ Temperature / ° C

Clouds and Precipitation
Forecast for 2018-05-21 12:00 UTC. Updated 39 minutes ago

Ground ~20,000 ft ~40,000 ft Winds

DAAG

Details ICAO DAAG (ALG)
Name Alger Houari Boumediene
Region Algeria
Timezone Africa/Algiers (UTC+1.0)
Stats Elevation 82 ft / 25 m (AMSL)
Location 36.697521° 3.213079°
Runways 2
Magnetic Variation 1.102° E

METAR

DAAG 211130Z 35006KT 310V070 9999 FEW020TCU 22/15 Q1013

Decode

TAF

TAF DAAG 211100Z 2112/2212 VRB02KT 9999 SCT020 BECMG 2114/1217 36012KT TEMPO 2112/2117 FEW020TCU FEW023CB PROB30 TEMPO 2112/2117 5000 -RA FEW023CB BECMG 2118/2121 VRB02KT PROB40 2122/2209 3000 BR BKN013 PROB30 TEMPO 2200/2206 0800 FG BKN008 BECMG 2209/2212 02010KT

Decode

Departure Runways

ID Width Length Bearing (true) Bearing (mag) Surface Threshold Offset Overrun Length
05 197 ft / 60 m 11,459 ft / 3,493 m 52.87° 51.77° Asphalt 0 ft / 0 m 0 ft / 0 m
09 148 ft / 45 m 11,442 ft / 3,487 m 91.75° 90.65° Asphalt 0 ft / 0 m 1,017 ft / 310 m
23 197 ft / 60 m 11,459 ft / 3,493 m 232.89° 231.79° Asphalt 0 ft / 0 m 0 ft / 0 m
27 148 ft / 45 m 11,442 ft / 3,487 m 271.78° 270.68° Asphalt 0 ft / 0 m 0 ft / 0 m

DABS

Details ICAO DABS (TEE)
Name CHEIKH LARBI TEBESSI
Region Algeria
Timezone Africa/Algiers (UTC+1.0)
Stats Elevation 2,661 ft / 811 m (AMSL)
Location 35.431610° 8.120716°
Runways 2
Magnetic Variation 2.009° E

METAR

DABS 211100Z 35002KT 9999 FEW030TCU BKN033 23/12 Q1012

Decode

TAF

TAF DABS 211100Z 2112/2212 32012KT 9999 FEW030TCU BKN033 TEMPO 2112/2121 4000 RA BECMG 2120/2122 05008KT TEMPO 2123/2207 3000 BR BKN010 TEMPO 2203/2212 2000 TSRA FEW023CB PROB30 TEMPO 2203/2209 -TSGR

Decode

Destination Runways

ID Width Length Bearing (true) Bearing (mag) Surface Threshold Offset Overrun Length
11 148 ft / 45 m 9,850 ft / 3,002 m 112.75° 110.74° Asphalt 0 ft / 0 m 345 ft / 105 m
12 98 ft / 30 m 7,867 ft / 2,398 m 121.86° 119.85° Asphalt 0 ft / 0 m 0 ft / 0 m
29 148 ft / 45 m 9,850 ft / 3,002 m 292.76° 290.75° Asphalt 0 ft / 0 m 345 ft / 105 m
30 98 ft / 30 m 7,867 ft / 2,398 m 301.88° 299.87° Asphalt 0 ft / 0 m 0 ft / 0 m

Popular Alternatives